createdAt,value
2022-09-26T00:01:42.920Z,45.13
2022-09-26T00:06:46.169Z,45.67
2022-09-26T00:11:48.895Z,49.30
2022-09-26T00:16:51.404Z,48.17
2022-09-26T00:21:53.859Z,48.77
2022-09-26T00:26:56.155Z,51.23
2022-09-26T00:31:58.509Z,47.93
2022-09-26T00:37:01.889Z,48.63
2022-09-26T00:42:04.399Z,46.07
2022-09-26T00:47:12.627Z,51.13
2022-09-26T00:52:30.002Z,51.17
2022-09-26T00:57:38.831Z,50.17
2022-09-26T01:02:42.915Z,47.10
2022-09-26T01:07:45.744Z,44.40
2022-09-26T01:12:48.089Z,40.97
2022-09-26T01:17:51.005Z,42.20
2022-09-26T01:23:12.292Z,41.43
2022-09-26T01:28:53.183Z,37.80
2022-09-26T01:34:16.956Z,42.13
2022-09-26T01:39:34.308Z,38.40
2022-09-26T01:44:36.639Z,45.97
2022-09-26T01:49:58.813Z,45.03
2022-09-26T01:55:10.145Z,43.03
2022-09-26T02:00:13.366Z,43.73
2022-09-26T02:05:35.739Z,46.73
2022-09-26T02:10:46.106Z,44.60
2022-09-26T02:15:53.096Z,44.13
2022-09-26T02:21:02.675Z,54.37
2022-09-26T02:26:06.292Z,53.57
2022-09-26T02:31:09.942Z,46.87
2022-09-26T02:36:13.481Z,45.80
2022-09-26T02:41:46.305Z,50.07
2022-09-26T02:47:10.351Z,55.47
2022-09-26T02:52:20.683Z,54.10
2022-09-26T02:58:11.517Z,46.83
2022-09-26T03:03:21.722Z,49.67
2022-09-26T03:08:28.075Z,50.57
2022-09-26T03:13:35.656Z,45.10
2022-09-26T03:18:54.176Z,40.73
2022-09-26T03:23:59.131Z,44.50
2022-09-26T03:29:02.409Z,62.53
2022-09-26T03:34:07.193Z,63.60
2022-09-26T03:39:09.804Z,66.77
2022-09-26T03:44:25.689Z,65.03
2022-09-26T03:49:46.602Z,50.13
2022-09-26T03:54:49.179Z,50.53
2022-09-26T03:59:52.156Z,48.80
2022-09-26T04:04:55.099Z,44.33
2022-09-26T04:09:57.453Z,45.17
2022-09-26T04:15:00.250Z,41.13
2022-09-26T04:20:07.228Z,44.33
2022-09-26T04:25:10.991Z,42.90
2022-09-26T04:30:14.258Z,44.00
2022-09-26T04:35:31.249Z,58.17
2022-09-26T04:40:34.000Z,66.57
2022-09-26T04:45:44.685Z,53.90
2022-09-26T04:50:48.564Z,55.80
2022-09-26T04:55:54.829Z,44.80
2022-09-26T05:01:02.635Z,41.40
2022-09-26T05:06:14.791Z,39.30
2022-09-26T05:11:18.611Z,37.87
2022-09-26T05:16:21.205Z,40.70
2022-09-26T05:21:26.138Z,37.47
2022-09-26T05:26:42.300Z,59.70
2022-09-26T05:31:45.987Z,45.73
2022-09-26T05:36:48.730Z,44.33
2022-09-26T05:41:52.624Z,46.47
2022-09-26T05:46:57.367Z,46.20
2022-09-26T05:52:03.270Z,48.93
2022-09-26T05:57:06.269Z,62.57
2022-09-26T06:02:21.073Z,44.07
2022-09-26T06:07:49.985Z,38.07
2022-09-26T06:13:09.235Z,42.57
2022-09-26T06:18:18.362Z,43.40
2022-09-26T06:23:21.006Z,36.67
2022-09-26T06:28:23.536Z,41.53
2022-09-26T06:33:28.722Z,36.67
2022-09-26T06:38:49.718Z,50.13
2022-09-26T06:43:53.163Z,62.33
2022-09-26T06:49:13.895Z,45.00
2022-09-26T06:54:19.221Z,44.47
2022-09-26T06:59:23.721Z,40.40
2022-09-26T07:04:44.506Z,41.10
2022-09-26T07:10:02.443Z,39.23
2022-09-26T07:15:19.646Z,38.00
2022-09-26T07:20:22.690Z,41.63
2022-09-26T07:25:47.530Z,37.90
2022-09-26T07:30:50.446Z,32.20
2022-09-26T07:36:12.910Z,36.40
2022-09-26T07:41:17.016Z,29.07
2022-09-26T07:46:37.929Z,30.37
2022-09-26T07:51:40.868Z,29.50
2022-09-26T07:56:47.949Z,27.73
2022-09-26T08:01:58.587Z,29.80
2022-09-26T08:07:12.222Z,29.80
2022-09-26T08:12:22.606Z,30.57
2022-09-26T08:17:55.516Z,30.80
2022-09-26T08:22:58.019Z,27.27
2022-09-26T08:28:01.773Z,28.03
2022-09-26T08:33:04.935Z,23.87
2022-09-26T08:38:09.589Z,21.40
2022-09-26T08:43:18.353Z,21.93
2022-09-26T08:49:27.410Z,19.53
2022-09-26T08:54:42.965Z,19.17
2022-09-26T08:59:49.126Z,20.03
2022-09-26T09:05:01.038Z,19.40
2022-09-26T09:10:08.051Z,19.27
2022-09-26T09:15:36.535Z,17.90
2022-09-26T09:21:15.682Z,20.40
2022-09-26T09:32:43.929Z,18.17
2022-09-26T09:37:54.470Z,19.10
2022-09-26T09:43:19.309Z,18.87
2022-09-26T09:48:25.272Z,18.77
2022-09-26T09:53:49.519Z,21.23
2022-09-26T09:59:22.795Z,19.20
2022-09-26T10:04:46.583Z,15.60
2022-09-26T10:09:52.157Z,15.87
2022-09-26T10:15:07.689Z,18.17
2022-09-26T10:20:35.313Z,14.90
2022-09-26T10:25:38.117Z,19.63
2022-09-26T10:30:50.121Z,21.77
2022-09-26T10:36:09.046Z,14.53
2022-09-26T10:41:24.312Z,22.33
2022-09-26T10:46:30.089Z,19.00
2022-09-26T10:52:08.612Z,16.83
2022-09-26T10:57:24.444Z,16.27
2022-09-26T11:02:28.347Z,15.80
2022-09-26T11:07:36.044Z,22.33
2022-09-26T11:13:21.911Z,21.50
2022-09-26T11:18:59.703Z,30.23
2022-09-26T11:24:16.242Z,23.63
2022-09-26T11:29:34.027Z,15.83
2022-09-26T11:35:02.646Z,20.33
2022-09-26T11:40:39.256Z,17.10
2022-09-26T11:46:03.354Z,17.53
2022-09-26T11:51:42.090Z,16.57
2022-09-26T11:57:16.675Z,15.67
2022-09-26T12:02:34.127Z,10.70
2022-09-26T12:08:14.683Z,11.37
2022-09-26T12:13:39.452Z,12.57
2022-09-26T12:18:56.743Z,13.87
2022-09-26T12:24:28.995Z,12.73
2022-09-26T12:29:52.703Z,101.47
2022-09-26T12:34:55.724Z,16.63
2022-09-26T12:40:16.809Z,20.00
2022-09-26T12:45:26.664Z,36.87
2022-09-26T12:50:41.536Z,61.93
2022-09-26T12:55:47.484Z,20.30
2022-09-26T13:01:17.879Z,20.30
2022-09-26T13:07:02.347Z,26.03
2022-09-26T13:12:23.196Z,14.87
2022-09-26T13:17:35.387Z,19.20
2022-09-26T13:22:47.832Z,12.27
2022-09-26T13:28:03.276Z,8.23
2022-09-26T13:33:14.158Z,10.50
2022-09-26T13:38:37.974Z,9.67
2022-09-26T13:43:49.275Z,7.07
2022-09-26T13:49:16.504Z,10.20
2022-09-26T13:54:29.591Z,10.80
2022-09-26T13:59:48.873Z,10.43
2022-09-26T14:05:19.713Z,5.07
2022-09-26T14:10:25.049Z,22.73
2022-09-26T14:15:47.321Z,22.43
2022-09-26T14:21:04.556Z,11.83
2022-09-26T14:26:18.855Z,11.00
2022-09-26T14:31:36.807Z,14.13
2022-09-26T14:36:39.474Z,18.47
2022-09-26T14:41:42.027Z,21.70
2022-09-26T14:46:44.923Z,9.83
2022-09-26T14:51:50.013Z,11.40
2022-09-26T14:57:03.037Z,4.57
2022-09-26T15:02:14.498Z,16.17
2022-09-26T15:07:22.589Z,12.47
2022-09-26T15:12:39.285Z,11.43
2022-09-26T15:17:50.490Z,5.60
2022-09-26T15:22:57.345Z,14.80
2022-09-26T15:28:00.047Z,15.73
2022-09-26T15:33:04.147Z,8.57
2022-09-26T15:38:13.035Z,7.43
2022-09-26T15:43:22.505Z,10.63
2022-09-26T15:48:29.498Z,10.80
2022-09-26T15:53:36.675Z,6.93
2022-09-26T15:59:12.709Z,14.90
2022-09-26T16:04:32.113Z,24.13
2022-09-26T16:09:37.711Z,24.63
2022-09-26T16:14:47.182Z,17.73
2022-09-26T16:19:55.368Z,15.13
2022-09-26T16:25:15.865Z,17.27
2022-09-26T16:30:23.603Z,14.07
2022-09-26T16:35:29.489Z,19.27
2022-09-26T16:40:34.780Z,15.17
2022-09-26T16:45:45.095Z,22.50
2022-09-26T16:50:47.446Z,29.57
2022-09-26T16:55:49.820Z,170.87
2022-09-26T17:01:18.251Z,131.70
2022-09-26T17:06:20.643Z,130.57
2022-09-26T17:11:23.704Z,162.20
2022-09-26T17:16:27.156Z,198.73
2022-09-26T17:21:29.606Z,195.30
2022-09-26T17:26:35.159Z,183.83
2022-09-26T17:31:38.772Z,180.47
2022-09-26T17:36:47.490Z,178.17
2022-09-26T17:41:50.065Z,164.93
2022-09-26T17:46:57.301Z,115.47
2022-09-26T17:52:02.188Z,131.23
2022-09-26T17:57:08.112Z,126.47
2022-09-26T18:02:25.482Z,121.60
2022-09-26T18:07:37.776Z,111.93
2022-09-26T18:12:40.213Z,103.97
2022-09-26T18:17:43.282Z,94.17
2022-09-26T18:22:49.301Z,72.27
2022-09-26T18:27:55.023Z,95.03
2022-09-26T18:32:57.988Z,169.40
2022-09-26T18:38:00.299Z,128.93
2022-09-26T18:43:03.320Z,137.60
2022-09-26T18:48:16.284Z,127.63
2022-09-26T18:53:20.828Z,116.13
2022-09-26T18:58:29.404Z,106.53
2022-09-26T19:03:34.675Z,84.23
2022-09-26T19:08:39.876Z,82.30
2022-09-26T19:13:44.780Z,76.53
2022-09-26T19:18:47.646Z,62.10
2022-09-26T19:23:51.354Z,59.20
2022-09-26T19:28:55.421Z,54.67
2022-09-26T19:33:57.911Z,62.40
2022-09-26T19:39:00.210Z,71.70
2022-09-26T19:44:02.558Z,81.40
2022-09-26T19:49:06.647Z,79.77
2022-09-26T19:54:15.306Z,73.03
2022-09-26T19:59:17.679Z,77.60
2022-09-26T20:04:20.371Z,81.90
2022-09-26T20:09:22.818Z,87.17
2022-09-26T20:14:25.231Z,83.20
2022-09-26T20:19:37.243Z,74.73
2022-09-26T20:24:40.096Z,78.60
2022-09-26T20:30:00.832Z,83.97
2022-09-26T20:35:04.620Z,80.20
2022-09-26T20:40:12.775Z,76.70
2022-09-26T20:45:17.993Z,91.87
2022-09-26T20:50:20.859Z,97.50
2022-09-26T20:55:23.175Z,90.23
2022-09-26T21:00:25.698Z,86.80
2022-09-26T21:05:28.126Z,81.23
2022-09-26T21:10:33.641Z,82.07
2022-09-26T21:15:36.859Z,78.17
2022-09-26T21:20:39.213Z,77.07
2022-09-26T21:25:50.576Z,77.93
2022-09-26T21:30:59.125Z,73.83
2022-09-26T21:36:01.755Z,82.17
2022-09-26T21:41:04.992Z,77.23
2022-09-26T21:46:07.516Z,75.47
2022-09-26T21:51:12.843Z,174.47
2022-09-26T21:56:21.249Z,202.50
2022-09-26T22:01:24.081Z,227.93
2022-09-26T22:06:27.158Z,147.17
2022-09-26T22:11:30.324Z,129.73
2022-09-26T22:16:33.303Z,144.47
2022-09-26T22:21:35.637Z,107.57
2022-09-26T22:26:38.363Z,117.93
2022-09-26T22:31:42.513Z,119.23
2022-09-26T22:36:44.844Z,106.77
2022-09-26T22:41:47.194Z,99.80
2022-09-26T22:46:49.489Z,82.33
2022-09-26T22:51:51.829Z,77.43
2022-09-26T22:56:54.400Z,69.73
2022-09-26T23:01:57.413Z,66.77
2022-09-26T23:06:59.729Z,67.37
2022-09-26T23:12:02.248Z,59.10
2022-09-26T23:17:04.939Z,70.13
2022-09-26T23:22:07.305Z,53.57
2022-09-26T23:27:09.637Z,57.87
2022-09-26T23:32:12.005Z,50.77
2022-09-26T23:37:14.322Z,48.90
2022-09-26T23:42:16.600Z,49.87
2022-09-26T23:47:18.932Z,51.03
2022-09-26T23:52:21.497Z,54.60
2022-09-26T23:57:23.999Z,51.03
